createdAt,value
2019-04-14T00:00:49.372Z,4.27
2019-04-14T00:01:47.846Z,4.24
2019-04-14T00:02:49.068Z,4.22
2019-04-14T00:03:47.813Z,4.30
2019-04-14T00:04:48.699Z,4.30
2019-04-14T00:05:47.787Z,4.32
2019-04-14T00:06:48.344Z,4.26
2019-04-14T00:07:47.781Z,4.34
2019-04-14T00:08:47.984Z,4.36
2019-04-14T00:09:47.748Z,4.37
2019-04-14T00:10:48.652Z,4.33
2019-04-14T00:11:48.115Z,4.30
2019-04-14T00:12:47.746Z,4.34
2019-04-14T00:13:47.942Z,4.32
2019-04-14T00:14:49.015Z,4.36
2019-04-14T00:15:50.464Z,4.24
2019-04-14T00:16:48.846Z,4.33
2019-04-14T00:17:47.952Z,4.22
2019-04-14T00:18:47.661Z,4.29
2019-04-14T00:19:47.832Z,4.15
2019-04-14T00:20:47.619Z,4.15
2019-04-14T00:21:47.720Z,4.18
2019-04-14T00:22:48.914Z,4.18
2019-04-14T00:23:47.903Z,4.09
2019-04-14T00:24:48.834Z,4.16
2019-04-14T00:25:47.720Z,4.14
2019-04-14T00:26:48.699Z,4.18
2019-04-14T00:27:47.633Z,4.06
2019-04-14T00:28:47.535Z,4.15
2019-04-14T00:29:47.935Z,4.16
2019-04-14T00:30:47.536Z,4.09
2019-04-14T00:31:48.515Z,4.12
2019-04-14T00:32:48.690Z,4.09
2019-04-14T00:33:47.601Z,4.15
2019-04-14T00:34:48.512Z,4.09
2019-04-14T00:35:47.465Z,4.06
2019-04-14T00:36:48.133Z,4.04
2019-04-14T00:37:47.462Z,4.09
2019-04-14T00:38:47.799Z,4.06
2019-04-14T00:39:47.420Z,4.00
2019-04-14T00:40:47.660Z,4.08
2019-04-14T00:41:52.490Z,4.00
2019-04-14T00:42:47.425Z,4.08
2019-04-14T00:43:48.407Z,4.08
2019-04-14T00:44:47.452Z,4.02
2019-04-14T00:45:52.534Z,4.02
2019-04-14T00:46:47.508Z,3.98
2019-04-14T00:47:55.665Z,4.02
2019-04-14T00:48:49.546Z,4.00
2019-04-14T00:49:48.630Z,4.04
2019-04-14T00:50:47.442Z,4.00
2019-04-14T00:51:48.385Z,4.04
2019-04-14T00:52:48.041Z,4.04
2019-04-14T00:53:47.272Z,4.00
2019-04-14T00:54:47.754Z,4.00
2019-04-14T00:55:47.277Z,3.91
2019-04-14T00:56:47.680Z,3.94
2019-04-14T00:57:47.265Z,3.97
2019-04-14T00:58:47.521Z,3.98
2019-04-14T00:59:47.191Z,3.97
2019-04-14T01:00:47.417Z,3.96
2019-04-14T01:01:48.298Z,3.96
2019-04-14T01:02:47.215Z,3.97
2019-04-14T01:03:48.220Z,4.02
2019-04-14T01:04:47.131Z,3.96
2019-04-14T01:05:48.114Z,3.97
2019-04-14T01:06:47.150Z,3.88
2019-04-14T01:07:47.999Z,3.84
2019-04-14T01:08:47.087Z,3.87
2019-04-14T01:09:47.074Z,3.96
2019-04-14T01:10:47.653Z,4.00
2019-04-14T01:11:47.104Z,3.94
2019-04-14T01:12:47.467Z,3.93
2019-04-14T01:13:47.069Z,3.93
2019-04-14T01:14:47.406Z,3.93
2019-04-14T01:15:54.855Z,3.90
2019-04-14T01:16:47.343Z,3.93
2019-04-14T01:17:47.003Z,3.94
2019-04-14T01:18:47.283Z,3.93
2019-04-14T01:19:46.966Z,3.91
2019-04-14T01:20:47.154Z,3.93
2019-04-14T01:21:48.022Z,3.88
2019-04-14T01:22:46.950Z,3.88
2019-04-14T01:23:47.942Z,3.87
2019-04-14T01:24:46.934Z,3.88
2019-04-14T01:25:47.698Z,3.88
2019-04-14T01:26:46.939Z,3.90
2019-04-14T01:27:47.419Z,3.91
2019-04-14T01:28:46.893Z,3.84
2019-04-14T01:29:47.365Z,3.87
2019-04-14T01:30:47.934Z,3.86
2019-04-14T01:31:47.113Z,3.84
2019-04-14T01:32:47.859Z,3.79
2019-04-14T01:33:46.958Z,3.84
2019-04-14T01:34:47.681Z,3.75
2019-04-14T01:35:46.800Z,3.79
2019-04-14T01:36:47.514Z,3.66
2019-04-14T01:37:46.763Z,3.72
2019-04-14T01:38:47.132Z,3.68
2019-04-14T01:39:46.766Z,3.65
2019-04-14T01:40:46.805Z,3.68
2019-04-14T01:41:47.830Z,3.68
2019-04-14T01:42:46.714Z,3.68
2019-04-14T01:43:47.429Z,3.62
2019-04-14T01:44:46.705Z,3.66
2019-04-14T01:45:59.514Z,3.70
2019-04-14T01:46:47.780Z,3.54
2019-04-14T01:47:46.812Z,3.65
2019-04-14T01:48:47.526Z,3.66
2019-04-14T01:49:46.673Z,3.55
2019-04-14T01:50:47.403Z,3.65
2019-04-14T01:51:46.623Z,3.68
2019-04-14T01:52:46.614Z,3.54
2019-04-14T01:53:46.824Z,3.58
2019-04-14T01:54:47.334Z,3.52
2019-04-14T01:55:46.564Z,3.57
2019-04-14T01:56:47.153Z,3.54
2019-04-14T01:57:46.572Z,3.61
2019-04-14T01:58:46.875Z,3.66
2019-04-14T01:59:46.542Z,3.69
2019-04-14T02:00:46.724Z,3.57
2019-04-14T02:01:47.621Z,3.57
2019-04-14T02:02:46.579Z,3.55
2019-04-14T02:03:47.649Z,3.57
2019-04-14T02:04:46.498Z,3.51
2019-04-14T02:05:47.453Z,3.55
2019-04-14T02:06:46.448Z,3.54
2019-04-14T02:07:47.256Z,3.68
2019-04-14T02:08:46.436Z,3.68
2019-04-14T02:09:46.873Z,3.69
2019-04-14T02:10:47.697Z,3.70
2019-04-14T02:11:46.680Z,3.68
2019-04-14T02:12:47.354Z,3.57
2019-04-14T02:13:46.561Z,3.57
2019-04-14T02:14:47.417Z,3.55
2019-04-14T02:15:46.568Z,3.57
2019-04-14T02:16:50.815Z,3.54
2019-04-14T02:17:46.330Z,3.54
2019-04-14T02:18:47.422Z,3.54
2019-04-14T02:19:46.322Z,3.50
2019-04-14T02:20:46.833Z,3.55
2019-04-14T02:21:47.672Z,3.57
2019-04-14T02:22:46.420Z,3.52
2019-04-14T02:23:47.444Z,3.57
2019-04-14T02:24:46.268Z,3.60
2019-04-14T02:25:47.197Z,3.54
2019-04-14T02:26:46.248Z,3.54
2019-04-14T02:27:47.238Z,3.54
2019-04-14T02:28:46.278Z,3.52
2019-04-14T02:29:47.255Z,3.52
2019-04-14T02:30:56.803Z,3.58
2019-04-14T02:32:17.371Z,3.57
2019-04-14T02:33:15.357Z,3.60
2019-04-14T02:34:22.007Z,3.57
2019-04-14T02:35:20.973Z,3.65
2019-04-14T02:37:19.177Z,3.65
2019-04-14T02:38:29.149Z,3.57
2019-04-14T02:39:14.068Z,3.57
2019-04-14T02:42:31.146Z,3.55
2019-04-14T02:43:22.526Z,3.58
2019-04-14T02:44:16.117Z,3.61
2019-04-14T02:45:19.112Z,3.60
2019-04-14T02:46:10.579Z,3.58
2019-04-14T02:47:48.953Z,3.57
2019-04-14T02:48:29.107Z,3.54
2019-04-14T02:49:14.769Z,3.52
2019-04-14T02:50:12.204Z,3.61
2019-04-14T02:51:19.134Z,3.48
2019-04-14T02:52:14.389Z,3.54
2019-04-14T02:53:15.171Z,3.48
2019-04-14T02:54:15.428Z,3.47
2019-04-14T02:55:09.096Z,3.47
2019-04-14T02:56:16.730Z,3.51
2019-04-14T02:57:20.516Z,3.57
2019-04-14T02:58:20.231Z,3.58
2019-04-14T02:59:27.045Z,3.55
2019-04-14T03:00:16.689Z,3.47
2019-04-14T03:02:24.702Z,3.48
2019-04-14T03:03:16.474Z,3.48
2019-04-14T03:04:17.119Z,3.50
2019-04-14T03:05:13.352Z,3.47
2019-04-14T03:06:12.729Z,3.52
2019-04-14T03:07:19.029Z,3.50
2019-04-14T03:08:17.114Z,3.47
2019-04-14T03:09:20.647Z,3.43
2019-04-14T03:10:10.535Z,3.52
2019-04-14T03:11:09.406Z,3.52
2019-04-14T03:12:10.713Z,3.35
2019-04-14T03:13:13.102Z,3.42
2019-04-14T03:14:15.194Z,3.39
2019-04-14T03:15:07.182Z,3.47
2019-04-14T03:16:19.755Z,3.29
2019-04-14T03:17:24.785Z,3.45
2019-04-14T03:19:06.648Z,3.39
2019-04-14T03:21:15.913Z,3.32
2019-04-14T03:22:19.855Z,3.28
2019-04-14T03:23:18.895Z,3.26
2019-04-14T03:24:10.903Z,3.23
2019-04-14T03:25:03.112Z,3.24
2019-04-14T03:26:04.798Z,3.18
2019-04-14T03:27:18.456Z,3.26
2019-04-14T03:28:11.718Z,3.17
2019-04-14T03:29:16.938Z,3.21
2019-04-14T03:30:39.059Z,3.23
2019-04-14T03:32:23.457Z,3.18
2019-04-14T03:33:52.452Z,3.24
2019-04-14T03:35:36.052Z,3.21
2019-04-14T03:39:15.350Z,3.20
2019-04-14T03:40:09.993Z,3.18
2019-04-14T03:41:17.202Z,3.24
2019-04-14T03:42:22.889Z,3.18
2019-04-14T03:44:10.062Z,3.21
2019-04-14T03:45:16.182Z,3.26
2019-04-14T03:46:17.371Z,3.24
2019-04-14T03:47:13.542Z,3.23
2019-04-14T03:48:45.159Z,3.21
2019-04-14T03:52:17.091Z,3.24
2019-04-14T03:53:15.840Z,3.23
2019-04-14T03:54:03.664Z,3.26
2019-04-14T03:55:01.237Z,3.20
2019-04-14T03:55:52.396Z,3.20
2019-04-14T03:56:46.325Z,3.18
2019-04-14T03:57:45.529Z,3.21
2019-04-14T03:58:46.452Z,3.15
2019-04-14T03:59:45.648Z,3.26
2019-04-14T04:00:46.462Z,3.26
2019-04-14T04:01:45.705Z,3.18
2019-04-14T04:02:45.161Z,3.20
2019-04-14T04:03:45.765Z,3.18
2019-04-14T04:04:45.140Z,3.17
2019-04-14T04:05:45.644Z,3.18
2019-04-14T04:06:46.304Z,3.21
2019-04-14T04:07:45.407Z,3.15
2019-04-14T04:08:46.386Z,3.20
2019-04-14T04:09:45.452Z,3.18
2019-04-14T04:10:45.101Z,3.32
2019-04-14T04:11:45.518Z,3.29
2019-04-14T04:12:45.085Z,3.28
2019-04-14T04:13:45.526Z,3.36
2019-04-14T04:14:46.281Z,3.32
2019-04-14T04:15:45.467Z,3.39
2019-04-14T04:16:46.109Z,3.35
2019-04-14T04:17:45.183Z,3.47
2019-04-14T04:18:56.197Z,3.39
2019-04-14T04:19:45.007Z,3.32
2019-04-14T04:20:45.577Z,3.43
2019-04-14T04:21:44.957Z,3.39
2019-04-14T04:22:45.586Z,3.35
2019-04-14T04:23:44.952Z,3.36
2019-04-14T04:24:45.470Z,3.39
2019-04-14T04:25:44.951Z,3.43
2019-04-14T04:26:45.118Z,3.35
2019-04-14T04:27:46.102Z,3.39
2019-04-14T04:28:45.143Z,3.28
2019-04-14T04:29:44.888Z,3.35
2019-04-14T04:30:44.982Z,3.35
2019-04-14T04:31:46.006Z,3.36
2019-04-14T04:32:44.870Z,3.32
2019-04-14T04:33:45.785Z,3.40
2019-04-14T04:34:44.843Z,3.40
2019-04-14T04:35:45.753Z,3.40
2019-04-14T04:36:44.816Z,3.31
2019-04-14T04:37:45.448Z,3.35
2019-04-14T04:38:44.764Z,3.31
2019-04-14T04:39:45.353Z,3.28
2019-04-14T04:40:46.051Z,3.33
2019-04-14T04:41:45.043Z,3.33
2019-04-14T04:42:45.808Z,3.42
2019-04-14T04:43:45.160Z,3.42
2019-04-14T04:44:44.717Z,3.36
2019-04-14T04:45:45.199Z,3.33
2019-04-14T04:46:45.891Z,3.39
2019-04-14T04:47:44.847Z,3.40
2019-04-14T04:48:56.581Z,3.33
2019-04-14T04:49:46.767Z,3.36
2019-04-14T04:50:45.336Z,3.43
2019-04-14T04:51:44.629Z,3.33
2019-04-14T04:52:45.115Z,3.36
2019-04-14T04:53:44.650Z,3.32
2019-04-14T04:54:44.982Z,3.36
2019-04-14T04:55:44.609Z,3.50
2019-04-14T04:56:44.906Z,3.51
2019-04-14T04:57:44.559Z,3.52
2019-04-14T04:58:45.585Z,3.52
2019-04-14T04:59:45.265Z,3.61
2019-04-14T05:00:47.272Z,3.61
2019-04-14T05:01:45.161Z,3.48
2019-04-14T05:02:44.503Z,3.55
2019-04-14T05:03:44.963Z,3.51
2019-04-14T05:04:44.491Z,3.54
2019-04-14T05:05:44.982Z,3.50
2019-04-14T05:06:45.640Z,3.51
2019-04-14T05:07:44.846Z,3.60
2019-04-14T05:08:45.516Z,3.52
2019-04-14T05:09:44.823Z,3.50
2019-04-14T05:10:45.489Z,3.50
2019-04-14T05:11:44.807Z,3.48
2019-04-14T05:12:45.555Z,3.47
2019-04-14T05:13:44.673Z,3.51
2019-04-14T05:14:45.513Z,3.54
2019-04-14T05:15:44.677Z,3.48
2019-04-14T05:16:44.360Z,3.45
2019-04-14T05:17:45.267Z,3.48
2019-04-14T05:18:44.325Z,3.43
2019-04-14T05:19:45.363Z,3.48
2019-04-14T05:20:44.301Z,3.54
2019-04-14T05:21:45.239Z,3.50
2019-04-14T05:22:44.304Z,3.55
2019-04-14T05:23:45.274Z,3.52
2019-04-14T05:24:44.257Z,3.52
2019-04-14T05:25:45.221Z,3.48
2019-04-14T05:26:44.233Z,3.55
2019-04-14T05:27:45.218Z,3.52
2019-04-14T05:28:44.243Z,3.48
2019-04-14T05:29:45.095Z,3.47
2019-04-14T05:30:44.191Z,3.51
2019-04-14T05:31:44.716Z,3.57
2019-04-14T05:32:44.171Z,3.57
2019-04-14T05:33:44.761Z,3.54
2019-04-14T05:34:45.395Z,3.55
2019-04-14T05:35:44.502Z,3.58
2019-04-14T05:36:45.313Z,3.68
2019-04-14T05:37:44.397Z,3.66
2019-04-14T05:38:45.014Z,3.69
2019-04-14T05:39:44.151Z,3.69
2019-04-14T05:40:45.063Z,3.69
2019-04-14T05:41:57.153Z,3.69
2019-04-14T05:42:45.073Z,3.69
2019-04-14T05:43:51.461Z,3.72
2019-04-14T05:44:44.819Z,3.62
2019-04-14T05:45:44.036Z,3.70
2019-04-14T05:46:44.654Z,3.75
2019-04-14T05:47:44.032Z,3.75
2019-04-14T05:48:44.644Z,3.79
2019-04-14T05:49:48.197Z,3.78
2019-04-14T05:50:44.370Z,3.76
2019-04-14T05:51:43.980Z,3.79
2019-04-14T05:52:44.732Z,3.87
2019-04-14T05:53:43.977Z,3.87
2019-04-14T05:54:44.728Z,3.80
2019-04-14T05:55:43.926Z,3.84
2019-04-14T05:56:44.777Z,3.84
2019-04-14T05:57:43.931Z,3.83
2019-04-14T05:58:44.775Z,3.87
2019-04-14T05:59:44.086Z,3.87
2019-04-14T06:00:43.867Z,3.87
2019-04-14T06:01:44.314Z,3.88
2019-04-14T06:02:44.158Z,3.90
2019-04-14T06:03:43.851Z,3.88
2019-04-14T06:04:44.002Z,3.86
2019-04-14T06:05:44.938Z,3.91
2019-04-14T06:06:43.798Z,3.88
2019-04-14T06:07:43.806Z,3.91
2019-04-14T06:08:43.786Z,3.90
2019-04-14T06:09:43.794Z,3.90
2019-04-14T06:10:43.761Z,3.87
2019-04-14T06:11:43.742Z,3.80
2019-04-14T06:12:43.732Z,3.78
2019-04-14T06:13:43.722Z,3.83
2019-04-14T06:14:43.713Z,3.94
2019-04-14T06:15:43.717Z,3.96
2019-04-14T06:16:43.708Z,4.00
2019-04-14T06:17:43.718Z,4.04
2019-04-14T06:18:43.690Z,4.00
2019-04-14T06:19:43.654Z,4.06
2019-04-14T06:20:43.654Z,4.12
2019-04-14T06:21:43.639Z,4.12
2019-04-14T06:22:43.634Z,4.14
2019-04-14T06:23:43.652Z,4.08
2019-04-14T06:24:43.597Z,4.14
2019-04-14T06:25:43.588Z,4.11
2019-04-14T06:26:43.586Z,4.20
2019-04-14T06:27:43.587Z,4.22
2019-04-14T06:28:43.581Z,4.20
2019-04-14T06:29:43.541Z,4.22
2019-04-14T06:30:43.529Z,4.18
2019-04-14T06:31:43.524Z,4.09
2019-04-14T06:32:43.525Z,4.06
2019-04-14T06:33:43.536Z,4.08
2019-04-14T06:34:43.505Z,4.00
2019-04-14T06:35:43.512Z,4.00
2019-04-14T06:36:43.468Z,4.04
2019-04-14T06:37:43.449Z,4.04
2019-04-14T06:38:43.459Z,4.08
2019-04-14T06:39:43.542Z,4.04
2019-04-14T06:40:43.457Z,4.09
2019-04-14T06:41:43.410Z,4.12
2019-04-14T06:42:43.429Z,4.20
2019-04-14T06:43:49.049Z,4.22
2019-04-14T06:44:43.391Z,4.15
2019-04-14T06:45:43.374Z,4.23
2019-04-14T06:46:43.397Z,4.29
2019-04-14T06:47:43.342Z,4.26
2019-04-14T06:48:43.331Z,4.32
2019-04-14T06:49:48.731Z,4.30
2019-04-14T06:50:43.331Z,4.44
2019-04-14T06:51:43.324Z,4.37
2019-04-14T06:52:43.283Z,4.41
2019-04-14T06:53:43.277Z,4.51
2019-04-14T06:54:43.273Z,4.50
2019-04-14T06:55:43.254Z,4.62
2019-04-14T06:56:43.257Z,4.69
2019-04-14T06:57:43.246Z,4.77
2019-04-14T06:58:43.227Z,4.86
2019-04-14T06:59:43.213Z,4.97
2019-04-14T07:00:43.201Z,5.07
2019-04-14T07:01:43.202Z,5.06
2019-04-14T07:02:45.475Z,5.15
2019-04-14T07:03:43.181Z,5.20
2019-04-14T07:04:43.159Z,5.20
2019-04-14T07:05:43.144Z,5.22
2019-04-14T07:06:43.133Z,5.25
2019-04-14T07:07:43.130Z,5.28
2019-04-14T07:08:43.145Z,5.25
2019-04-14T07:09:43.125Z,5.33
2019-04-14T07:10:43.085Z,5.33
2019-04-14T07:11:43.077Z,5.31
2019-04-14T07:12:43.541Z,5.33
2019-04-14T07:13:48.002Z,5.27
2019-04-14T07:14:43.063Z,5.30
2019-04-14T07:15:43.028Z,5.35
2019-04-14T07:16:43.017Z,5.39
2019-04-14T07:17:43.011Z,5.58
2019-04-14T07:18:43.002Z,5.51
2019-04-14T07:19:43.018Z,5.58
2019-04-14T07:20:42.998Z,5.75
2019-04-14T07:21:42.962Z,5.76
2019-04-14T07:22:42.950Z,5.78
2019-04-14T07:23:42.949Z,6.00
2019-04-14T07:24:42.987Z,5.96
2019-04-14T07:25:42.935Z,5.93
2019-04-14T07:26:42.935Z,5.96
2019-04-14T07:27:42.894Z,5.85
2019-04-14T07:28:42.884Z,5.90
2019-04-14T07:29:43.774Z,5.97
2019-04-14T07:30:42.877Z,5.93
2019-04-14T07:31:42.865Z,5.85
2019-04-14T07:32:42.878Z,5.82
2019-04-14T07:33:42.827Z,5.89
2019-04-14T07:34:42.821Z,5.94
2019-04-14T07:35:42.809Z,6.06
2019-04-14T07:36:42.809Z,6.14
2019-04-14T07:37:42.812Z,6.19
2019-04-14T07:38:42.797Z,6.22
2019-04-14T07:39:42.759Z,6.12
2019-04-14T07:40:42.751Z,6.11
2019-04-14T07:41:42.756Z,6.18
2019-04-14T07:42:42.749Z,6.21
2019-04-14T07:43:42.756Z,6.22
2019-04-14T07:44:42.742Z,6.22
2019-04-14T07:45:42.696Z,6.25
2019-04-14T07:46:42.712Z,6.37
2019-04-14T07:47:42.678Z,6.37
2019-04-14T07:48:42.668Z,6.40
2019-04-14T07:49:42.677Z,6.33
2019-04-14T07:50:42.640Z,6.36
2019-04-14T07:51:42.633Z,6.30
2019-04-14T07:52:42.627Z,6.27
2019-04-14T07:53:42.609Z,6.14
2019-04-14T07:54:42.606Z,6.12
2019-04-14T07:55:42.605Z,6.15
2019-04-14T07:56:42.574Z,6.12
2019-04-14T07:57:42.586Z,6.18
2019-04-14T07:58:42.551Z,6.14
2019-04-14T07:59:42.551Z,6.09
2019-04-14T08:00:42.541Z,6.12
2019-04-14T08:01:42.539Z,6.08
2019-04-14T08:02:42.512Z,6.18
2019-04-14T08:03:42.505Z,6.25
2019-04-14T08:04:42.485Z,6.25
2019-04-14T08:05:42.491Z,6.18
2019-04-14T08:06:42.474Z,6.14
2019-04-14T08:07:42.481Z,6.22
2019-04-14T08:08:42.450Z,6.25
2019-04-14T08:09:42.434Z,6.34
2019-04-14T08:10:42.422Z,6.33
2019-04-14T08:11:42.436Z,6.40
2019-04-14T08:12:42.409Z,6.34
2019-04-14T08:13:42.383Z,6.28
2019-04-14T08:14:42.371Z,6.25
2019-04-14T08:15:42.366Z,6.33
2019-04-14T08:16:42.353Z,6.40
2019-04-14T08:17:43.702Z,6.51
2019-04-14T08:18:42.339Z,6.61
2019-04-14T08:19:42.320Z,6.56
2019-04-14T08:20:42.310Z,6.56
2019-04-14T08:21:42.300Z,6.61
2019-04-14T08:22:42.303Z,6.73
2019-04-14T08:23:42.293Z,6.71
2019-04-14T08:24:42.298Z,6.74
2019-04-14T08:25:42.247Z,6.81
2019-04-14T08:26:42.241Z,6.88
2019-04-14T08:27:42.229Z,6.99
2019-04-14T08:28:42.235Z,7.05
2019-04-14T08:29:42.251Z,7.02
2019-04-14T08:30:42.195Z,7.05
2019-04-14T08:31:42.183Z,7.16
2019-04-14T08:32:42.169Z,7.32
2019-04-14T08:33:42.161Z,7.28
2019-04-14T08:34:42.168Z,7.30
2019-04-14T08:35:42.166Z,7.30
2019-04-14T08:36:42.126Z,7.16
2019-04-14T08:37:42.117Z,6.99
2019-04-14T08:38:42.102Z,6.85
2019-04-14T08:39:42.097Z,6.88
2019-04-14T08:40:42.125Z,6.84
2019-04-14T08:41:42.089Z,6.71
2019-04-14T08:42:42.063Z,6.62
2019-04-14T08:43:42.050Z,6.58
2019-04-14T08:44:42.045Z,6.56
2019-04-14T08:45:42.048Z,6.64
2019-04-14T08:46:42.032Z,6.85
2019-04-14T08:47:42.021Z,6.84
2019-04-14T08:48:41.992Z,6.91
2019-04-14T08:49:41.984Z,6.89
2019-04-14T08:50:41.997Z,6.94
2019-04-14T08:51:41.971Z,6.95
2019-04-14T08:52:41.966Z,7.03
2019-04-14T08:53:41.956Z,7.12
2019-04-14T08:54:41.978Z,7.15
2019-04-14T08:55:41.933Z,7.16
2019-04-14T08:56:41.914Z,7.17
2019-04-14T08:57:41.916Z,7.23
2019-04-14T08:58:41.908Z,7.28
2019-04-14T08:59:41.892Z,7.35
2019-04-14T09:00:41.876Z,7.48
2019-04-14T09:01:41.849Z,7.52
2019-04-14T09:02:41.841Z,7.53
2019-04-14T09:03:41.855Z,7.55
2019-04-14T09:04:41.833Z,7.60
2019-04-14T09:05:41.860Z,7.80
2019-04-14T09:06:41.790Z,7.72
2019-04-14T09:07:41.784Z,7.58
2019-04-14T09:08:41.770Z,7.68
2019-04-14T09:09:41.788Z,7.67
2019-04-14T09:10:41.783Z,7.79
2019-04-14T09:11:41.769Z,7.64
2019-04-14T09:12:41.725Z,7.79
2019-04-14T09:13:41.726Z,7.61
2019-04-14T09:14:41.707Z,7.39
2019-04-14T09:15:41.700Z,7.43
2019-04-14T09:16:41.707Z,7.31
2019-04-14T09:17:41.709Z,7.37
2019-04-14T09:18:41.661Z,7.42
2019-04-14T09:19:41.651Z,7.49
2019-04-14T09:20:51.817Z,7.58
2019-04-14T09:21:41.636Z,7.68
2019-04-14T09:22:41.633Z,7.69
2019-04-14T09:23:41.640Z,7.89
2019-04-14T09:24:41.598Z,8.01
2019-04-14T09:25:41.610Z,7.98
2019-04-14T09:26:41.577Z,8.00
2019-04-14T09:27:41.578Z,8.12
2019-04-14T09:28:41.575Z,8.07
2019-04-14T09:29:41.546Z,8.12
2019-04-14T09:30:41.542Z,8.11
2019-04-14T09:31:41.516Z,8.10
2019-04-14T09:32:41.525Z,8.08
2019-04-14T09:33:41.510Z,8.18
2019-04-14T09:34:41.513Z,8.15
2019-04-14T09:35:41.475Z,8.33
2019-04-14T09:36:41.469Z,8.36
2019-04-14T09:37:41.457Z,8.43
2019-04-14T09:38:41.463Z,8.45
2019-04-14T09:39:41.445Z,8.40
2019-04-14T09:40:41.443Z,8.38
2019-04-14T09:41:41.421Z,8.36
2019-04-14T09:42:41.400Z,8.45
2019-04-14T09:43:41.390Z,8.41
2019-04-14T09:44:41.389Z,8.41
2019-04-14T09:45:41.378Z,8.38
2019-04-14T09:46:41.372Z,8.41
2019-04-14T09:47:41.342Z,8.38
2019-04-14T09:48:42.959Z,8.40
2019-04-14T09:49:41.317Z,8.37
2019-04-14T09:50:42.335Z,8.34
2019-04-14T09:51:41.322Z,8.43
2019-04-14T09:52:41.332Z,8.66
2019-04-14T09:53:41.281Z,8.77
2019-04-14T09:54:41.265Z,8.79
2019-04-14T09:55:41.258Z,8.84
2019-04-14T09:56:41.267Z,8.80
2019-04-14T09:57:41.244Z,8.70
2019-04-14T09:58:41.267Z,8.71
2019-04-14T09:59:41.210Z,8.81
2019-04-14T10:00:41.199Z,8.76
2019-04-14T10:01:41.230Z,8.83
2019-04-14T10:02:41.186Z,9.10
2019-04-14T10:03:41.183Z,9.11
2019-04-14T10:04:41.165Z,9.20
2019-04-14T10:05:41.144Z,9.31
2019-04-14T10:06:41.181Z,9.42
2019-04-14T10:07:41.145Z,9.33
2019-04-14T10:08:41.125Z,9.29
2019-04-14T10:09:41.114Z,9.24
2019-04-14T10:10:41.124Z,9.17
2019-04-14T10:11:48.656Z,9.23
2019-04-14T10:12:41.070Z,9.35
2019-04-14T10:13:41.093Z,9.47
2019-04-14T10:14:41.060Z,9.40
2019-04-14T10:15:41.053Z,9.40
2019-04-14T10:16:41.016Z,9.33
2019-04-14T10:17:41.007Z,9.36
2019-04-14T10:18:40.996Z,9.38
2019-04-14T10:19:41.813Z,9.50
2019-04-14T10:20:40.994Z,9.53
2019-04-14T10:21:41.012Z,9.38
2019-04-14T10:22:40.962Z,9.23
2019-04-14T10:23:40.942Z,9.13
2019-04-14T10:24:40.958Z,9.11
2019-04-14T10:25:40.937Z,9.18
2019-04-14T10:26:40.934Z,9.15
2019-04-14T10:27:40.904Z,9.20
2019-04-14T10:28:40.889Z,9.28
2019-04-14T10:29:40.875Z,9.04
2019-04-14T10:30:40.880Z,9.13
2019-04-14T10:31:40.889Z,9.10
2019-04-14T10:32:40.866Z,8.92
2019-04-14T10:33:40.829Z,9.13
2019-04-14T10:34:40.858Z,9.02
2019-04-14T10:35:40.814Z,9.10
2019-04-14T10:36:40.818Z,9.05
2019-04-14T10:37:40.824Z,9.18
2019-04-14T10:38:40.802Z,9.17
2019-04-14T10:39:40.765Z,9.01
2019-04-14T10:40:40.819Z,9.08
2019-04-14T10:41:40.749Z,9.08
2019-04-14T10:42:40.761Z,9.02
2019-04-14T10:43:40.758Z,8.95
2019-04-14T10:44:40.744Z,8.94
2019-04-14T10:45:40.696Z,8.80
2019-04-14T10:46:41.181Z,8.91
2019-04-14T10:47:40.714Z,8.87
2019-04-14T10:48:40.707Z,9.01
2019-04-14T10:49:40.669Z,9.14
2019-04-14T10:50:40.645Z,9.17
2019-04-14T10:51:40.637Z,9.20
2019-04-14T10:52:40.629Z,9.26
2019-04-14T10:53:40.610Z,9.39
2019-04-14T10:54:40.615Z,9.36
2019-04-14T10:55:40.616Z,9.31
2019-04-14T10:56:40.581Z,9.35
2019-04-14T10:57:40.617Z,9.32
2019-04-14T10:58:40.553Z,9.42
2019-04-14T10:59:40.559Z,9.42
2019-04-14T11:00:40.549Z,9.40
2019-04-14T11:01:40.558Z,9.42
2019-04-14T11:02:40.561Z,9.35
2019-04-14T11:03:40.506Z,9.31
2019-04-14T11:04:40.494Z,9.28
2019-04-14T11:05:40.492Z,9.18
2019-04-14T11:06:40.499Z,9.08
2019-04-14T11:07:40.483Z,9.24
2019-04-14T11:08:40.496Z,9.15
2019-04-14T11:09:40.440Z,8.89
2019-04-14T11:10:40.471Z,8.87
2019-04-14T11:11:40.426Z,8.94
2019-04-14T11:12:40.415Z,9.02
2019-04-14T11:13:40.431Z,9.23
2019-04-14T11:14:40.379Z,9.46
2019-04-14T11:15:40.366Z,9.61
2019-04-14T11:16:40.361Z,9.74
2019-04-14T11:17:40.361Z,9.76
2019-04-14T11:18:40.364Z,9.87
2019-04-14T11:19:40.318Z,9.89
2019-04-14T11:20:40.321Z,9.93
2019-04-14T11:21:42.651Z,9.97
2019-04-14T11:22:40.290Z,10.01
2019-04-14T11:23:40.299Z,9.89
2019-04-14T11:24:40.277Z,9.74
2019-04-14T11:25:40.254Z,9.74
2019-04-14T11:26:40.259Z,9.74
2019-04-14T11:27:40.266Z,9.78
2019-04-14T11:28:40.225Z,9.94
2019-04-14T11:29:40.219Z,9.91
2019-04-14T11:30:40.227Z,9.93
2019-04-14T11:31:40.185Z,9.90
2019-04-14T11:32:40.236Z,9.78
2019-04-14T11:33:40.190Z,9.78
2019-04-14T11:34:40.161Z,9.72
2019-04-14T11:35:40.158Z,9.83
2019-04-14T11:36:40.157Z,9.89
2019-04-14T11:37:40.192Z,9.90
2019-04-14T11:38:40.112Z,9.93
2019-04-14T11:39:40.111Z,9.86
2019-04-14T11:40:40.110Z,9.89
2019-04-14T11:41:40.093Z,9.89
2019-04-14T11:42:51.603Z,9.76
2019-04-14T11:43:40.108Z,9.64
2019-04-14T11:44:40.053Z,9.56
2019-04-14T11:45:40.149Z,9.51
2019-04-14T11:46:40.037Z,9.50
2019-04-14T11:47:40.019Z,9.60
2019-04-14T11:48:40.041Z,9.60
2019-04-14T11:49:39.991Z,9.60
2019-04-14T11:50:39.977Z,9.60
2019-04-14T11:51:39.964Z,9.60
2019-04-14T11:52:39.959Z,9.57
2019-04-14T11:53:39.967Z,9.60
2019-04-14T11:54:39.934Z,9.57
2019-04-14T11:55:39.923Z,9.68
2019-04-14T11:56:39.912Z,9.64
2019-04-14T11:57:39.904Z,9.75
2019-04-14T11:58:39.901Z,9.89
2019-04-14T11:59:39.906Z,9.97
2019-04-14T12:00:39.870Z,10.04
2019-04-14T12:01:39.852Z,10.09
2019-04-14T12:02:39.864Z,10.20
2019-04-14T12:03:39.853Z,10.26
2019-04-14T12:04:39.836Z,10.07
2019-04-14T12:05:39.832Z,10.11
2019-04-14T12:06:39.790Z,10.04
2019-04-14T12:07:39.786Z,10.07
2019-04-14T12:08:39.785Z,10.17
2019-04-14T12:09:39.775Z,10.26
2019-04-14T12:10:39.766Z,10.32
2019-04-14T12:11:39.765Z,10.18
2019-04-14T12:12:39.724Z,10.11
2019-04-14T12:13:39.727Z,10.11
2019-04-14T12:14:39.707Z,10.08
2019-04-14T12:15:39.702Z,10.02
2019-04-14T12:16:39.701Z,10.02
2019-04-14T12:17:39.706Z,9.99
2019-04-14T12:18:39.686Z,9.90
2019-04-14T12:19:39.652Z,9.65
2019-04-14T12:20:39.651Z,9.61
2019-04-14T12:21:39.638Z,9.50
2019-04-14T12:22:39.641Z,9.35
2019-04-14T12:23:39.618Z,9.29
2019-04-14T12:24:39.599Z,9.23
2019-04-14T12:25:39.578Z,9.11
2019-04-14T12:26:39.580Z,9.08
2019-04-14T12:27:39.814Z,9.11
2019-04-14T12:28:40.464Z,9.29
2019-04-14T12:29:39.584Z,9.40
2019-04-14T12:30:39.895Z,9.61
2019-04-14T12:31:39.670Z,9.76
2019-04-14T12:32:39.524Z,9.71
2019-04-14T12:33:39.504Z,9.79
2019-04-14T12:34:39.524Z,9.93
2019-04-14T12:35:39.485Z,9.91
2019-04-14T12:36:39.455Z,10.01
2019-04-14T12:37:39.465Z,10.11
2019-04-14T12:38:39.554Z,10.09
2019-04-14T12:39:39.462Z,10.09
2019-04-14T12:40:40.232Z,10.11
2019-04-14T12:41:39.929Z,10.04
2019-04-14T12:42:39.392Z,10.15
2019-04-14T12:43:39.392Z,10.11
2019-04-14T12:44:39.391Z,10.17
2019-04-14T12:45:39.393Z,10.32
2019-04-14T12:46:39.347Z,10.22
2019-04-14T12:47:40.342Z,10.23
2019-04-14T12:48:39.323Z,10.20
2019-04-14T12:49:39.333Z,10.30
2019-04-14T12:50:39.339Z,10.17
2019-04-14T12:51:39.315Z,10.01
2019-04-14T12:52:39.280Z,9.93
2019-04-14T12:53:39.295Z,9.76
2019-04-14T12:54:39.257Z,9.69
2019-04-14T12:55:39.283Z,9.64
2019-04-14T12:56:39.296Z,9.69
2019-04-14T12:57:39.233Z,9.71
2019-04-14T12:58:39.234Z,9.64
2019-04-14T12:59:39.213Z,9.71
2019-04-14T13:00:39.239Z,9.78
2019-04-14T13:01:39.198Z,9.87
2019-04-14T13:02:39.188Z,9.90
2019-04-14T13:03:41.739Z,9.90
2019-04-14T13:04:39.147Z,9.78
2019-04-14T13:05:39.134Z,9.75
2019-04-14T13:06:39.128Z,9.79
2019-04-14T13:07:39.122Z,9.86
2019-04-14T13:08:39.137Z,9.86
2019-04-14T13:09:39.119Z,9.83
2019-04-14T13:10:39.084Z,9.83
2019-04-14T13:11:39.072Z,9.76
2019-04-14T13:12:39.062Z,9.83
2019-04-14T13:13:39.062Z,9.90
2019-04-14T13:14:39.117Z,10.01
2019-04-14T13:15:39.029Z,9.94
2019-04-14T13:16:39.018Z,9.96
2019-04-14T13:17:39.002Z,9.97
2019-04-14T13:18:39.015Z,10.04
2019-04-14T13:19:39.009Z,10.02
2019-04-14T13:20:38.997Z,10.09
2019-04-14T13:21:40.473Z,10.02
2019-04-14T13:22:38.952Z,9.99
2019-04-14T13:23:38.941Z,9.90
2019-04-14T13:24:38.938Z,9.89
2019-04-14T13:25:38.936Z,9.87
2019-04-14T13:26:38.899Z,9.89
2019-04-14T13:27:38.890Z,9.81
2019-04-14T13:28:38.888Z,9.76
2019-04-14T13:29:38.904Z,9.74
2019-04-14T13:30:38.887Z,9.75
2019-04-14T13:31:38.860Z,9.91
2019-04-14T13:32:38.837Z,9.89